Impacts METAR Board
IDs:

KMSP - Minneapolis-St Paul, MN, US

Updated at: 1200 UTC 07 Jul 2020
Potential Impact None Slight Moderate High
Time 07/00Z 07/01Z 07/02Z 07/03Z 07/04Z 07/05Z 07/06Z 07/07Z 07/08Z 07/09Z 07/10Z 07/11Z 07/12Z
Temp83 81 80 78 77 75 75 74 74 73 72 73 74
Dewpt67 65 63 66 67 67 68 68 68 68 68 68 70
Altim29.94 29.94 29.94 29.95 29.96 29.96 29.95 29.93 29.93 29.96 29.96 29.96 29.96
VIS10 10 10 10 10 10 10 10 10 10 10 10 10
CIG70 75 -- -- -- -- -- -- -- -- -- -- 250
CoverBKNBKNSCTSCTCLRCLRFEWFEWCLRCLRFEWFEWBKN
FltCatVFRVFRVFRVFRVFRVFRVFRVFRVFRVFRVFRVFRVFR
WX--------------------------
WDir250260260280280300000230000
WSpd8 8 7 4 5 3 0 0 0 3 0 0 0
WGst-- -- -- -- -- -- -- -- -- -- -- -- --
Raw hourly METARs
KMSP 062353Z 25008KT 10SM FEW035 BKN070 BKN150 BKN250 28/19 A2994 RMK AO2 SLP131 T02830194 10300 20272 56005
KMSP 070053Z 26008KT 10SM FEW035 SCT065 BKN075 BKN250 27/18 A2994 RMK AO2 SLP133 T02720183
KMSP 070153Z 26007KT 10SM SCT070 SCT150 SCT250 27/17 A2994 RMK AO2 SLP131 T02670172
KMSP 070253Z 28004KT 10SM FEW045 FEW070 FEW150 SCT250 26/19 A2995 RMK AO2 SLP135 T02560189 53003
KMSP 070353Z 28005KT 10SM CLR 25/19 A2996 RMK AO2 SLP139 T02500194
KMSP 070453Z 30003KT 10SM CLR 24/19 A2996 RMK AO2 SLP140 T02390194
KMSP 070553Z 00000KT 10SM FEW250 24/20 A2995 RMK AO2 SLP137 T02390200 10283 20239 403000228 50002
KMSP 070653Z 00000KT 10SM FEW250 23/20 A2993 RMK AO2 SLP128 T02330200
KMSP 070753Z 00000KT 10SM CLR 23/20 A2993 RMK AO2 SLP130 T02330200
KMSP 070853Z 23003KT 10SM CLR 23/20 A2996 RMK AO2 SLP139 T02280200 53002
KMSP 070953Z 00000KT 10SM FEW250 22/20 A2996 RMK AO2 SLP140 T02220200
KMSP 071053Z 00000KT 10SM FEW250 23/20 A2996 RMK AO2 SLP139 T02280200
KMSP 071153Z 00000KT 10SM FEW049 FEW060 BKN250 23/21 A2996 RMK AO2 SLP139 TCU DSNT SE-SW 70035 T02330211 10244 20217 51000



Page loaded:  12:05 UTC  |   05:05 AM Pacific  |   06:05 AM Mountain  |   07:05 AM Central  |   08:05 AM Eastern

 

ADVISORIES

FORECASTS

FORECASTS

OBSERVATIONS

USER TOOLS

ABOUT US